createdAt,value
2023-02-01T00:04:16.290Z,4.90
2023-02-01T00:09:08.683Z,5.00
2023-02-01T00:14:00.571Z,5.00
2023-02-01T00:18:59.014Z,4.90
2023-02-01T00:23:50.944Z,4.90
2023-02-01T00:28:42.718Z,4.90
2023-02-01T00:33:35.377Z,4.90
2023-02-01T00:38:28.617Z,4.90
2023-02-01T00:43:20.526Z,4.90
2023-02-01T00:48:12.406Z,4.90
2023-02-01T00:53:04.077Z,5.00
2023-02-01T00:57:55.908Z,4.90
2023-02-01T01:02:47.602Z,4.90
2023-02-01T01:07:39.354Z,4.90
2023-02-01T01:12:31.430Z,4.90
2023-02-01T01:17:23.124Z,4.90
2023-02-01T01:22:14.809Z,4.90
2023-02-01T01:27:06.532Z,5.00
2023-02-01T01:31:58.257Z,4.90
2023-02-01T01:36:49.954Z,4.90
2023-02-01T01:41:41.618Z,4.90
2023-02-01T01:46:39.256Z,5.00
2023-02-01T01:51:35.746Z,5.00
2023-02-01T01:56:31.754Z,5.00
2023-02-01T02:01:23.490Z,5.00
2023-02-01T02:06:26.531Z,5.00
2023-02-01T02:11:18.924Z,4.90
2023-02-01T02:16:41.932Z,4.90
2023-02-01T02:21:46.899Z,4.90
2023-02-01T02:27:39.051Z,4.90
2023-02-01T02:33:04.711Z,4.90
2023-02-01T02:38:12.950Z,4.90
2023-02-01T02:43:44.825Z,4.90
2023-02-01T02:48:53.335Z,4.80
2023-02-01T02:54:16.664Z,4.90
2023-02-01T02:59:32.477Z,4.90
2023-02-01T03:04:24.445Z,4.90
2023-02-01T03:09:50.409Z,4.80
2023-02-01T03:14:47.830Z,4.70
2023-02-01T03:19:50.920Z,4.60
2023-02-01T03:24:54.757Z,4.60
2023-02-01T03:30:10.513Z,4.50
2023-02-01T03:35:05.456Z,4.60
2023-02-01T03:40:12.503Z,4.50
2023-02-01T03:45:32.185Z,4.50
2023-02-01T03:50:28.574Z,4.40
2023-02-01T03:55:24.374Z,4.40
2023-02-01T04:00:26.214Z,4.40
2023-02-01T04:05:18.272Z,4.40
2023-02-01T04:10:12.348Z,4.30
2023-02-01T04:15:05.159Z,4.30
2023-02-01T04:19:57.247Z,4.30
2023-02-01T04:24:49.250Z,4.30
2023-02-01T04:29:41.877Z,4.30
2023-02-01T04:34:33.790Z,4.40
2023-02-01T04:39:25.515Z,4.40
2023-02-01T04:44:19.399Z,4.30
2023-02-01T04:49:12.602Z,4.30
2023-02-01T04:54:05.034Z,4.30
2023-02-01T04:58:56.948Z,4.30
2023-02-01T05:09:03.594Z,4.30
2023-02-01T05:19:03.767Z,4.30
2023-02-01T05:29:24.038Z,4.40
2023-02-01T05:39:31.236Z,4.30
2023-02-01T07:11:26.940Z,4.30
2023-02-01T08:33:24.282Z,4.40
2023-02-01T16:38:34.675Z,6.10
2023-02-01T16:59:04.276Z,6.10
2023-02-01T18:27:01.807Z,6.00
2023-02-01T21:11:35.868Z,5.80
2023-02-01T21:16:36.536Z,5.90
2023-02-01T21:52:34.743Z,5.80
2023-02-01T23:09:43.532Z,5.50
2023-02-01T23:25:12.921Z,5.50
